createdAt,value
2023-01-28T00:01:23.546Z,1.27
2023-01-28T00:06:27.058Z,1.17
2023-01-28T00:11:28.275Z,1.16
2023-01-28T00:16:30.340Z,1.12
2023-01-28T00:21:31.682Z,1.11
2023-01-28T00:26:34.097Z,1.02
2023-01-28T00:31:35.491Z,0.99
2023-01-28T00:36:42.373Z,0.98
2023-01-28T00:41:43.629Z,0.75
2023-01-28T00:46:47.476Z,0.73
2023-01-28T00:51:57.881Z,0.74
2023-01-28T00:56:59.055Z,0.63
2023-01-28T01:02:12.222Z,0.40
2023-01-28T01:07:13.539Z,0.21
2023-01-28T01:12:14.808Z,0.17
2023-01-28T01:17:16.056Z,0.06
2023-01-28T01:22:17.288Z,0.04
2023-01-28T01:27:25.880Z,0.09
2023-01-28T01:32:27.037Z,0.15
2023-01-28T01:37:28.242Z,0.03
2023-01-28T01:42:29.464Z,-0.18
2023-01-28T01:47:30.740Z,-0.27
2023-01-28T01:52:32.029Z,-0.35
2023-01-28T01:57:33.246Z,-0.32
2023-01-28T02:02:34.462Z,-0.28
2023-01-28T02:07:35.769Z,-0.34
2023-01-28T02:12:37.055Z,-0.37
2023-01-28T02:17:38.321Z,-0.47
2023-01-28T02:22:39.908Z,-0.55
2023-01-28T02:27:41.130Z,-0.58
2023-01-28T02:32:42.297Z,-0.70
2023-01-28T02:37:44.725Z,-0.78
2023-01-28T02:42:46.022Z,-0.83
2023-01-28T02:47:59.238Z,-0.81
2023-01-28T02:53:19.366Z,-0.75
2023-01-28T02:58:20.593Z,-0.62
2023-01-28T03:03:23.394Z,-0.54
2023-01-28T03:08:43.200Z,-0.47
2023-01-28T03:14:03.102Z,-0.40
2023-01-28T03:19:24.986Z,-0.37
2023-01-28T03:24:44.892Z,-0.34
2023-01-28T03:30:04.663Z,-0.39
2023-01-28T03:35:24.648Z,-0.39
2023-01-28T03:40:25.876Z,-0.41
2023-01-28T03:45:27.196Z,-0.46
2023-01-28T03:50:28.420Z,-0.57
2023-01-28T03:55:29.665Z,-0.69
2023-01-28T04:00:30.848Z,-0.65
2023-01-28T04:05:32.058Z,-0.55
2023-01-28T04:10:33.313Z,-0.56
2023-01-28T04:15:35.798Z,-0.60
2023-01-28T04:20:37.837Z,-0.67
2023-01-28T04:25:39.149Z,-0.81
2023-01-28T04:30:40.413Z,-0.86
2023-01-28T04:35:41.692Z,-0.77
2023-01-28T04:40:42.864Z,-0.70
2023-01-28T04:45:44.128Z,-0.63
2023-01-28T04:50:45.681Z,-0.55
2023-01-28T04:55:46.887Z,-0.39
2023-01-28T05:00:48.164Z,-0.26
2023-01-28T05:05:49.470Z,-0.14
2023-01-28T05:10:50.740Z,-0.08
2023-01-28T05:15:52.675Z,-0.19
2023-01-28T05:20:53.900Z,-0.13
2023-01-28T05:25:55.140Z,-0.04
2023-01-28T05:30:56.402Z,0.05
2023-01-28T05:35:57.762Z,0.10
2023-01-28T05:40:59.029Z,0.14
2023-01-28T05:46:00.315Z,0.19
2023-01-28T05:51:01.952Z,0.22
2023-01-28T05:56:03.325Z,0.23
2023-01-28T06:01:04.605Z,0.24
2023-01-28T06:06:08.097Z,0.31
2023-01-28T06:11:09.257Z,0.31
2023-01-28T06:16:10.560Z,0.31
2023-01-28T06:21:11.808Z,0.34
2023-01-28T06:26:13.046Z,0.39
2023-01-28T06:31:14.255Z,0.40
2023-01-28T06:36:15.505Z,0.34
2023-01-28T06:41:16.955Z,0.39
2023-01-28T06:46:18.315Z,0.41
2023-01-28T06:51:19.509Z,0.41
2023-01-28T06:56:20.716Z,0.46
2023-01-28T07:01:21.879Z,0.48
2023-01-28T07:06:23.053Z,0.50
2023-01-28T07:11:24.281Z,0.50
2023-01-28T07:16:25.445Z,0.49
2023-01-28T07:21:26.668Z,0.58
2023-01-28T07:26:29.028Z,0.55
2023-01-28T07:31:30.407Z,0.54
2023-01-28T07:36:31.660Z,0.56
2023-01-28T07:41:32.912Z,0.56
2023-01-28T07:46:34.164Z,0.61
2023-01-28T07:51:35.362Z,0.64
2023-01-28T07:56:38.381Z,0.63
2023-01-28T08:01:39.701Z,0.68
2023-01-28T08:06:41.003Z,0.67
2023-01-28T08:11:42.526Z,0.62
2023-01-28T08:16:43.813Z,0.66
2023-01-28T08:21:45.036Z,0.71
2023-01-28T08:26:46.227Z,0.76
2023-01-28T08:31:47.413Z,0.79
2023-01-28T08:36:48.629Z,0.84
2023-01-28T08:41:49.867Z,0.85
2023-01-28T08:46:51.083Z,0.83
2023-01-28T08:51:52.375Z,0.75
2023-01-28T08:56:53.609Z,0.89
2023-01-28T09:01:54.836Z,1.01
2023-01-28T09:06:56.159Z,0.99
2023-01-28T09:11:57.401Z,1.01
2023-01-28T09:16:58.566Z,1.12
2023-01-28T09:21:59.753Z,1.15
2023-01-28T09:27:00.923Z,1.13
2023-01-28T09:32:02.109Z,1.18
2023-01-28T09:37:04.504Z,1.05
2023-01-28T09:42:05.742Z,1.12
2023-01-28T09:47:06.939Z,1.17
2023-01-28T09:52:08.194Z,1.06
2023-01-28T09:57:11.135Z,1.07
2023-01-28T10:02:14.355Z,1.23
2023-01-28T10:07:18.279Z,1.37
2023-01-28T10:12:19.529Z,1.34
2023-01-28T10:17:20.796Z,1.31
2023-01-28T10:22:22.054Z,1.33
2023-01-28T10:27:23.282Z,1.45
2023-01-28T10:32:27.121Z,1.40
2023-01-28T10:37:28.309Z,1.45
2023-01-28T10:42:29.547Z,1.36
2023-01-28T10:47:32.664Z,1.26
2023-01-28T10:52:33.903Z,1.20
2023-01-28T10:57:35.237Z,1.20
2023-01-28T11:02:37.315Z,1.20
2023-01-28T11:07:38.889Z,1.20
2023-01-28T11:12:40.123Z,1.31
2023-01-28T11:17:43.690Z,1.37
2023-01-28T11:22:44.982Z,1.61
2023-01-28T11:27:46.212Z,1.79
2023-01-28T11:32:47.403Z,1.67
2023-01-28T11:37:51.508Z,1.28
2023-01-28T11:42:52.805Z,1.19
2023-01-28T11:47:53.969Z,1.11
2023-01-28T11:53:06.422Z,1.19
2023-01-28T11:58:08.569Z,1.37
2023-01-28T12:03:09.851Z,1.26
2023-01-28T12:08:11.022Z,1.19
2023-01-28T12:13:12.217Z,1.19
2023-01-28T12:18:13.388Z,1.24
2023-01-28T12:23:14.636Z,1.27
2023-01-28T12:28:15.847Z,1.28
2023-01-28T12:33:17.667Z,1.45
2023-01-28T12:38:19.299Z,1.50
2023-01-28T12:43:20.528Z,1.38
2023-01-28T12:48:21.695Z,1.38
2023-01-28T12:53:22.895Z,1.49
2023-01-28T12:58:25.129Z,1.48
2023-01-28T13:03:26.329Z,1.61
2023-01-28T13:08:27.485Z,1.67
2023-01-28T13:13:28.840Z,1.94
2023-01-28T13:18:32.328Z,2.23
2023-01-28T13:23:33.634Z,2.33
2023-01-28T13:28:34.787Z,2.37
2023-01-28T13:33:36.127Z,2.98
2023-01-28T13:38:41.191Z,3.26
2023-01-28T13:43:42.702Z,3.41
2023-01-28T13:48:44.032Z,3.30
2023-01-28T13:53:45.276Z,3.18
2023-01-28T13:58:49.464Z,2.72
2023-01-28T14:03:50.724Z,2.72
2023-01-28T14:08:52.009Z,2.53
2023-01-28T14:13:53.192Z,2.88
2023-01-28T14:18:54.407Z,2.42
2023-01-28T14:23:55.753Z,2.29
2023-01-28T14:28:56.999Z,2.08
2023-01-28T14:33:58.234Z,1.86
2023-01-28T14:39:02.069Z,1.83
2023-01-28T14:44:03.305Z,1.80
2023-01-28T14:49:04.533Z,1.57
2023-01-28T14:54:05.798Z,1.72
2023-01-28T14:59:06.997Z,1.87
2023-01-28T15:04:08.194Z,1.88
2023-01-28T15:09:09.420Z,1.89
2023-01-28T15:14:12.183Z,1.71
2023-01-28T15:19:13.882Z,1.56
2023-01-28T15:24:17.143Z,1.40
2023-01-28T15:29:20.020Z,1.27
2023-01-28T15:34:21.328Z,1.19
2023-01-28T15:39:22.532Z,1.10
2023-01-28T15:44:24.037Z,1.01
2023-01-28T15:49:25.250Z,0.85
2023-01-28T15:54:26.528Z,0.65
2023-01-28T15:59:28.038Z,0.43
2023-01-28T16:04:31.284Z,0.36
2023-01-28T16:09:32.928Z,0.24
2023-01-28T16:14:34.159Z,0.19
2023-01-28T16:19:35.411Z,0.09
2023-01-28T16:24:39.078Z,0.06
2023-01-28T16:29:40.274Z,-0.03
2023-01-28T16:34:42.279Z,-0.15
2023-01-28T16:39:51.901Z,-0.22
2023-01-28T16:44:53.102Z,-0.51
2023-01-28T16:49:54.337Z,-0.50
2023-01-28T16:54:55.568Z,-0.45
2023-01-28T16:59:56.744Z,-0.44
2023-01-28T17:04:58.015Z,-0.50
2023-01-28T17:09:59.262Z,-0.54
2023-01-28T17:15:00.442Z,-0.64
2023-01-28T17:20:01.622Z,-0.74
2023-01-28T17:25:02.804Z,-0.88
2023-01-28T17:30:03.973Z,-1.01
2023-01-28T17:35:05.200Z,-1.12
2023-01-28T17:40:06.508Z,-1.21
2023-01-28T17:45:07.727Z,-1.35
2023-01-28T17:50:08.896Z,-1.44
2023-01-28T17:55:11.962Z,-1.46
2023-01-28T18:00:13.210Z,-1.52
2023-01-28T18:05:16.461Z,-1.53
2023-01-28T18:10:17.869Z,-1.59
2023-01-28T18:15:19.133Z,-1.56
2023-01-28T18:20:20.326Z,-1.59
2023-01-28T18:25:23.311Z,-1.65
2023-01-28T18:30:24.629Z,-1.70
2023-01-28T18:35:25.831Z,-1.74
2023-01-28T18:40:27.066Z,-1.79
2023-01-28T18:45:28.339Z,-1.87
2023-01-28T18:50:29.605Z,-1.83
2023-01-28T18:55:32.879Z,-1.82
2023-01-28T19:00:42.873Z,-1.79
2023-01-28T19:05:44.108Z,-1.79
2023-01-28T19:10:45.315Z,-1.87
2023-01-28T19:15:46.496Z,-1.95
2023-01-28T19:20:47.808Z,-1.91
2023-01-28T19:25:49.103Z,-1.98
2023-01-28T19:30:50.325Z,-2.03
2023-01-28T19:35:51.557Z,-2.04
2023-01-28T19:40:52.814Z,-1.98
2023-01-28T19:45:54.240Z,-1.97
2023-01-28T19:50:55.784Z,-2.01
2023-01-28T19:55:57.082Z,-2.03
2023-01-28T20:00:58.316Z,-1.97
2023-01-28T20:05:59.541Z,-1.93
2023-01-28T20:11:02.765Z,-1.93
2023-01-28T20:16:04.013Z,-2.00
2023-01-28T20:21:05.459Z,-2.03
2023-01-28T20:26:06.690Z,-2.00
2023-01-28T20:31:10.127Z,-1.97
2023-01-28T20:36:12.631Z,-2.06
2023-01-28T20:41:13.857Z,-2.07
2023-01-28T20:46:15.069Z,-2.22
2023-01-28T20:51:16.303Z,-2.39
2023-01-28T20:56:24.557Z,-2.55
2023-01-28T21:01:25.931Z,-2.66
2023-01-28T21:06:27.138Z,-2.76
2023-01-28T21:11:28.385Z,-2.85
2023-01-28T21:16:29.832Z,-2.91
2023-01-28T21:21:31.114Z,-2.95
2023-01-28T21:26:32.308Z,-2.94
2023-01-28T21:31:33.516Z,-2.96
2023-01-28T21:36:37.144Z,-3.00
2023-01-28T21:41:38.508Z,-3.10
2023-01-28T21:46:40.233Z,-3.15
2023-01-28T21:51:47.402Z,-3.19
2023-01-28T21:56:48.653Z,-3.27
2023-01-28T22:01:49.907Z,-3.35
2023-01-28T22:06:51.181Z,-3.42
2023-01-28T22:11:52.465Z,-3.47
2023-01-28T22:16:53.806Z,-3.52
2023-01-28T22:21:57.436Z,-3.57
2023-01-28T22:26:58.622Z,-3.58
2023-01-28T22:32:00.444Z,-3.69
2023-01-28T22:37:01.723Z,-3.66
2023-01-28T22:42:03.285Z,-3.55
2023-01-28T22:47:04.494Z,-3.60
2023-01-28T22:52:05.698Z,-3.60
2023-01-28T22:57:07.945Z,-3.61
2023-01-28T23:02:09.167Z,-3.62
2023-01-28T23:07:12.412Z,-3.62
2023-01-28T23:12:15.878Z,-3.69
2023-01-28T23:17:36.703Z,-3.74
2023-01-28T23:22:56.676Z,-3.72
2023-01-28T23:27:57.900Z,-3.75
2023-01-28T23:33:01.207Z,-3.71
2023-01-28T23:38:02.462Z,-3.70
2023-01-28T23:43:04.571Z,-3.70
2023-01-28T23:48:05.801Z,-3.81
2023-01-28T23:53:13.031Z,-3.88
2023-01-28T23:58:14.276Z,-3.87
